Time;durP1;ratioP1;P1;durP2;ratioP2;P2;SDS_P1;SDS_P2;PMS_P1;PMS_P2;Temp;Humidity;BMP_temperature;BMP_pressure;BME280_temperature;BME280_humidity;BME280_pressure;Samples;Min_cycle;Max_cycle;Signal;HPM_P1;HPM_P2
2021/04/18 00:00:54;;;;;;;;;;;15.40;59.50;;;;;;4207654;28;20193;-43
2021/04/18 00:03:16;;;;;;;0.00;0.00;;;15.30;59.60;;;;;;4211830;28;19920;-43
2021/04/18 00:05:37;;;;;;;0.00;0.00;;;15.30;59.60;;;;;;4227088;28;20043;-43
2021/04/18 00:08:02;;;;;;;0.00;0.00;;;15.40;59.70;;;;;;4226481;28;20067;-44
2021/04/18 00:10:24;;;;;;;0.63;0.63;;;15.60;60.10;;;;;;4225592;28;20051;-43
2021/04/18 00:12:45;;;;;;;;;;;15.80;58.90;;;;;;4195502;28;20052;-44
2021/04/18 00:15:08;;;;;;;0.20;0.20;;;15.90;58.60;;;;;;4226153;28;20294;-46
2021/04/18 00:17:29;;;;;;;1.10;1.05;;;15.90;59.10;;;;;;4209635;28;20044;-50
2021/04/18 00:19:51;;;;;;;1.42;0.70;;;16.00;58.30;;;;;;4209634;28;20059;-43
2021/04/18 00:22:12;;;;;;;1.15;0.93;;;15.90;58.30;;;;;;4223476;28;20039;-44
2021/04/18 00:24:33;;;;;;;4.60;1.05;;;15.90;58.40;;;;;;4216920;28;20127;-45
2021/04/18 00:26:54;;;;;;;0.13;0.13;;;15.90;58.50;;;;;;4210084;28;20124;-48
2021/04/18 00:29:18;;;;;;;12.18;1.75;;;15.80;58.60;;;;;;4226615;28;20471;-43
2021/04/18 00:31:40;;;;;;;0.03;0.03;;;15.80;58.70;;;;;;4223232;28;20096;-45
2021/04/18 00:34:00;;;;;;;0.00;0.00;;;15.80;58.70;;;;;;4226525;28;20047;-44
2021/04/18 00:36:24;;;;;;;0.00;0.00;;;15.80;58.80;;;;;;4226349;28;20043;-44
2021/04/18 00:38:45;;;;;;;10.63;1.10;;;15.70;58.80;;;;;;4226229;28;20217;-43
2021/04/18 00:41:06;;;;;;;0.03;0.03;;;15.70;58.90;;;;;;4220737;28;20051;-44
2021/04/18 00:43:27;;;;;;;0.45;0.45;;;15.70;59.00;;;;;;4226248;28;20662;-44
2021/04/18 00:45:49;;;;;;;0.00;0.00;;;15.60;59.00;;;;;;4226001;28;20424;-44
2021/04/18 00:48:10;;;;;;;0.20;0.20;;;15.60;59.10;;;;;;4226132;28;20059;-45
2021/04/18 00:50:33;;;;;;;0.20;0.20;;;15.50;59.10;;;;;;4225073;28;20116;-44
2021/04/18 00:52:55;;;;;;;0.00;0.00;;;15.70;59.10;;;;;;4226215;28;20047;-45
2021/04/18 00:55:18;;;;;;;0.15;0.15;;;15.90;58.50;;;;;;4226005;28;20071;-42
2021/04/18 00:57:39;;;;;;;0.13;0.13;;;16.10;57.80;;;;;;4226077;28;20527;-43
2021/04/18 01:00:00;;;;;;;;;;;16.20;57.40;;;;;;4226684;27;20521;-44
2021/04/18 01:02:21;;;;;;;0.03;0.03;;;16.30;57.40;;;;;;4211589;28;19962;-43
2021/04/18 01:04:43;;;;;;;0.73;0.57;;;16.30;57.30;;;;;;4210527;28;20459;-43
2021/04/18 01:07:05;;;;;;;0.35;0.25;;;16.30;57.40;;;;;;4210541;28;20505;-44
2021/04/18 01:09:28;;;;;;;;;;;16.40;57.10;;;;;;4226329;28;20801;-43
2021/04/18 01:11:50;;;;;;;0.10;0.10;;;16.50;56.80;;;;;;4193779;28;19928;-44
2021/04/18 01:14:11;;;;;;;0.38;0.38;;;16.60;56.60;;;;;;4208926;28;20456;-46
2021/04/18 01:16:34;;;;;;;0.15;0.15;;;16.60;56.50;;;;;;4193784;28;20045;-44
2021/04/18 01:18:56;;;;;;;0.05;0.05;;;16.60;56.60;;;;;;4184401;28;20056;-44
2021/04/18 01:21:18;;;;;;;0.25;0.13;;;16.60;56.70;;;;;;4194105;28;20053;-43
2021/04/18 01:23:53;;;;;;;0.00;0.00;;;16.60;56.80;;;;;;4193482;28;20053;-44
2021/04/18 01:26:18;;;;;;;0.00;0.00;;;16.60;56.60;;;;;;4225769;28;20101;-43
2021/04/18 01:28:39;;;;;;;0.00;0.00;;;16.60;56.60;;;;;;4210102;28;20429;-44
2021/04/18 01:31:00;;;;;;;0.20;0.20;;;16.60;56.60;;;;;;4207401;28;20051;-44
2021/04/18 01:33:22;;;;;;;0.10;0.10;;;16.50;56.80;;;;;;4208836;28;20056;-44
2021/04/18 01:35:46;;;;;;;0.00;0.00;;;16.40;56.90;;;;;;4225575;28;20055;-46
2021/04/18 01:38:11;;;;;;;0.00;0.00;;;16.30;57.10;;;;;;4213910;28;20090;-44
2021/04/18 01:40:33;;;;;;;1.27;1.17;;;16.40;57.10;;;;;;4216127;28;20040;-44
2021/04/18 01:42:54;;;;;;;0.00;0.00;;;16.60;56.60;;;;;;4225584;28;20210;-43
2021/04/18 01:45:17;;;;;;;0.00;0.00;;;16.80;56.20;;;;;;4222344;28;20044;-43
2021/04/18 01:47:38;;;;;;;0.88;0.88;;;16.80;55.90;;;;;;4219450;28;20542;-44
2021/04/18 01:49:59;;;;;;;;;;;16.80;55.80;;;;;;4224094;28;20059;-43
2021/04/18 01:52:20;;;;;;;0.00;0.00;;;16.80;56.00;;;;;;4224855;28;19923;-43
2021/04/18 01:54:44;;;;;;;0.00;0.00;;;16.70;56.20;;;;;;4208592;28;20711;-44
2021/04/18 01:57:06;;;;;;;0.30;0.30;;;16.60;56.40;;;;;;4225210;28;20104;-44
2021/04/18 01:59:32;;;;;;;0.00;0.00;;;16.50;56.60;;;;;;4209479;27;20634;-45
2021/04/18 02:02:19;;;;;;;0.20;0.20;;;16.40;56.80;;;;;;4191957;28;20044;-44
2021/04/18 02:04:48;;;;;;;2.75;0.90;;;16.40;57.20;;;;;;4193379;28;20131;-44
2021/04/18 02:07:10;;;;;;;0.00;0.00;;;16.40;58.00;;;;;;4225987;27;20707;-44
2021/04/18 02:09:35;;;;;;;0.00;0.00;;;16.50;57.00;;;;;;4223909;27;20128;-44
2021/04/18 02:11:59;;;;;;;0.00;0.00;;;16.60;56.70;;;;;;4207221;28;20105;-46
2021/04/18 02:14:21;;;;;;;0.00;0.00;;;16.60;56.60;;;;;;4206935;28;20047;-43
2021/04/18 02:16:55;;;;;;;0.00;0.00;;;16.60;56.60;;;;;;4214599;28;20063;-44
2021/04/18 02:19:17;;;;;;;0.20;0.20;;;16.70;56.50;;;;;;4210807;28;20499;-43
2021/04/18 02:21:37;;;;;;;0.00;0.00;;;16.70;56.40;;;;;;4220775;28;20048;-44
2021/04/18 02:23:59;;;;;;;0.00;0.00;;;16.70;56.50;;;;;;4207973;28;20052;-44
2021/04/18 02:26:20;;;;;;;0.10;0.10;;;16.60;56.60;;;;;;4177113;28;20064;-44
2021/04/18 02:28:45;;;;;;;0.00;0.00;;;16.50;56.70;;;;;;4180406;28;20044;-43
2021/04/18 02:31:08;;;;;;;0.00;0.00;;;16.50;56.90;;;;;;4208272;28;20043;-46
2021/04/18 02:33:35;;;;;;;0.20;0.20;;;16.60;56.50;;;;;;4207010;28;20078;-43
2021/04/18 02:35:56;;;;;;;0.00;0.00;;;16.70;56.20;;;;;;4223478;27;20451;-48
2021/04/18 02:38:18;;;;;;;0.32;0.15;;;16.80;56.10;;;;;;4226012;27;20059;-49
2021/04/18 02:40:39;;;;;;;0.00;0.00;;;16.80;56.10;;;;;;4226299;27;20078;-49
2021/04/18 02:43:00;;;;;;;0.03;0.03;;;16.70;56.10;;;;;;4241478;27;20046;-43
2021/04/18 02:45:26;;;;;;;0.00;0.00;;;16.70;56.30;;;;;;4222444;27;20468;-43
2021/04/18 02:47:48;;;;;;;0.25;0.25;;;16.60;56.50;;;;;;4189562;28;20056;-44
2021/04/18 02:50:11;;;;;;;0.00;0.00;;;16.50;56.70;;;;;;4213405;28;20426;-44
2021/04/18 02:52:32;;;;;;;0.45;0.45;;;16.50;56.80;;;;;;4224183;28;20039;-43
2021/04/18 02:54:53;;;;;;;0.00;0.00;;;16.60;56.70;;;;;;4208824;28;20054;-43
2021/04/18 02:57:17;;;;;;;0.10;0.10;;;16.70;56.40;;;;;;4199093;28;20044;-43
2021/04/18 02:59:37;;;;;;;0.00;0.00;;;16.70;56.30;;;;;;4203247;28;20416;-43
2021/04/18 03:02:00;;;;;;;0.00;0.00;;;16.70;56.20;;;;;;4190385;28;20123;-44
2021/04/18 03:04:23;;;;;;;0.00;0.00;;;16.70;56.20;;;;;;4187229;28;20128;-44
2021/04/18 03:06:44;;;;;;;;;;;16.80;56.10;;;;;;4190774;28;20064;-43
2021/04/18 03:09:06;;;;;;;;;;;16.70;56.00;;;;;;4201673;28;19928;-43
2021/04/18 03:11:31;;;;;;;0.88;0.85;;;16.70;56.10;;;;;;4207520;28;20421;-44
2021/04/18 03:13:59;;;;;;;0.00;0.00;;;16.60;56.30;;;;;;4208826;28;20047;-44
2021/04/18 03:16:22;;;;;;;0.10;0.10;;;16.50;56.40;;;;;;4191959;28;20078;-43
2021/04/18 03:18:44;;;;;;;;;;;16.50;56.70;;;;;;4207729;28;20109;-43
2021/04/18 03:21:06;;;;;;;0.10;0.10;;;16.60;56.50;;;;;;4206955;28;19924;-45
2021/04/18 03:23:27;;;;;;;0.03;0.03;;;16.80;56.00;;;;;;4207280;28;20040;-43
2021/04/18 03:25:51;;;;;;;0.05;0.05;;;16.90;55.60;;;;;;4205982;28;20120;-43
2021/04/18 03:28:13;;;;;;;0.00;0.00;;;16.90;55.50;;;;;;4208395;28;20048;-43
2021/04/18 03:30:38;;;;;;;0.00;0.00;;;16.90;55.50;;;;;;4223738;28;20136;-44
2021/04/18 03:33:02;;;;;;;0.00;0.00;;;16.80;55.60;;;;;;4212204;28;20055;-44
2021/04/18 03:35:23;;;;;;;0.10;0.10;;;16.70;55.80;;;;;;4202969;28;20102;-43
2021/04/18 03:37:47;;;;;;;0.00;0.00;;;16.60;55.90;;;;;;4226980;27;20055;-45
2021/04/18 03:40:11;;;;;;;0.13;0.13;;;16.50;56.30;;;;;;4199725;28;20051;-44
2021/04/18 03:42:32;;;;;;;0.00;0.00;;;16.40;56.50;;;;;;4233761;27;20497;-44
2021/04/18 03:44:56;;;;;;;0.28;0.28;;;16.40;56.80;;;;;;4212695;28;20211;-43
2021/04/18 03:47:17;;;;;;;0.00;0.00;;;16.40;56.50;;;;;;4194972;28;20089;-47
2021/04/18 03:49:50;;;;;;;0.00;0.00;;;16.50;56.30;;;;;;4194879;28;20048;-47
2021/04/18 03:52:18;;;;;;;0.10;0.10;;;16.60;56.20;;;;;;4195115;28;20361;-43
2021/04/18 03:54:40;;;;;;;0.00;0.00;;;16.50;56.20;;;;;;4197204;28;20055;-45
2021/04/18 03:57:01;;;;;;;0.00;0.00;;;16.60;56.30;;;;;;4211718;28;20218;-44
2021/04/18 03:59:24;;;;;;;0.00;0.00;;;16.50;56.30;;;;;;4219212;28;20052;-44
2021/04/18 04:01:48;;;;;;;0.00;0.00;;;16.50;56.40;;;;;;4211875;28;20043;-44
2021/04/18 04:04:12;;;;;;;0.00;0.00;;;16.40;56.50;;;;;;4211675;28;20810;-43
2021/04/18 04:06:37;;;;;;;0.00;0.00;;;16.50;56.40;;;;;;4244191;27;20039;-44
2021/04/18 04:09:00;;;;;;;0.00;0.00;;;16.70;56.00;;;;;;4228681;27;20060;-44
2021/04/18 04:11:31;;;;;;;3.92;1.77;;;16.70;56.40;;;;;;4244013;27;20039;-43
2021/04/18 04:13:53;;;;;;;0.00;0.00;;;16.80;55.70;;;;;;4227157;27;20608;-44
2021/04/18 04:16:17;;;;;;;0.00;0.00;;;16.70;55.70;;;;;;4222587;28;20050;-44
2021/04/18 04:18:39;;;;;;;0.10;0.10;;;16.60;55.80;;;;;;4226377;27;20067;-45
2021/04/18 04:21:20;;;;;;;0.00;0.00;;;16.60;56.00;;;;;;4203383;27;20142;-43
2021/04/18 04:24:09;;;;;;;0.00;0.00;;;16.60;55.90;;;;;;4231887;27;20047;-44
2021/04/18 04:26:30;;;;;;;0.00;0.00;;;16.70;55.70;;;;;;4210208;28;20048;-44
2021/04/18 04:28:51;;;;;;;0.00;0.00;;;16.70;55.60;;;;;;4209939;28;20040;-45
2021/04/18 04:31:12;;;;;;;0.00;0.00;;;16.70;55.60;;;;;;4209946;28;20048;-43
2021/04/18 04:33:34;;;;;;;0.00;0.00;;;16.60;55.70;;;;;;4211214;27;20172;-43
2021/04/18 04:35:56;;;;;;;0.08;0.08;;;16.60;55.90;;;;;;4193363;28;20050;-43
2021/04/18 04:38:17;;;;;;;0.10;0.10;;;16.60;56.00;;;;;;4202962;28;20109;-44
2021/04/18 04:40:39;;;;;;;0.00;0.00;;;16.50;56.00;;;;;;4210110;28;20051;-45
2021/04/18 04:43:00;;;;;;;0.00;0.00;;;16.40;56.10;;;;;;4209092;28;20142;-43
2021/04/18 04:45:20;;;;;;;0.00;0.00;;;16.40;56.30;;;;;;4193928;28;20429;-43
2021/04/18 04:47:42;;;;;;;0.00;0.00;;;16.40;56.30;;;;;;4192771;28;20044;-44
2021/04/18 04:50:04;;;;;;;0.00;0.00;;;16.40;56.30;;;;;;4227655;27;20079;-44
2021/04/18 04:52:25;;;;;;;0.03;0.03;;;16.30;56.30;;;;;;4242879;27;20104;-44
2021/04/18 04:54:46;;;;;;;0.00;0.00;;;16.30;56.40;;;;;;4220041;27;20072;-45
2021/04/18 04:57:08;;;;;;;;;;;16.50;56.10;;;;;;4198713;27;20053;-44
2021/04/18 04:59:32;;;;;;;0.00;0.00;;;16.80;55.40;;;;;;4242443;27;19945;-45
2021/04/18 05:01:53;;;;;;;0.10;0.10;;;17.00;54.90;;;;;;4242829;27;20069;-46
2021/04/18 05:04:15;;;;;;;;;;;17.00;54.80;;;;;;4228015;27;20044;-51
2021/04/18 05:06:35;;;;;;;0.00;0.00;;;17.00;54.80;;;;;;4209363;28;20382;-45
2021/04/18 05:08:56;;;;;;;0.13;0.13;;;17.00;54.90;;;;;;4208063;28;20044;-44
2021/04/18 05:11:17;;;;;;;0.00;0.00;;;16.90;55.00;;;;;;4209552;28;20063;-43
2021/04/18 05:13:39;;;;;;;0.00;0.00;;;16.90;55.10;;;;;;4217515;27;20400;-42
2021/04/18 05:16:02;;;;;;;0.00;0.00;;;16.80;55.10;;;;;;4242692;27;20073;-43
2021/04/18 05:18:23;;;;;;;0.00;0.00;;;16.80;55.30;;;;;;4220279;27;20486;-43
2021/04/18 05:20:44;;;;;;;0.00;0.00;;;16.70;55.50;;;;;;4193725;28;20042;-44
2021/04/18 05:23:05;;;;;;;0.00;0.00;;;16.80;55.50;;;;;;4192502;28;20052;-45
2021/04/18 05:25:26;;;;;;;0.00;0.00;;;16.90;55.20;;;;;;4192533;28;20051;-49
2021/04/18 05:27:46;;;;;;;0.20;0.20;;;17.00;54.90;;;;;;4207474;28;20079;-48
2021/04/18 05:30:10;;;;;;;0.00;0.00;;;17.10;54.70;;;;;;4208892;28;20414;-47
2021/04/18 05:32:32;;;;;;;0.00;0.00;;;17.10;54.50;;;;;;4192587;28;20571;-44
2021/04/18 05:34:53;;;;;;;0.00;0.00;;;17.10;54.70;;;;;;4196327;28;20056;-45
2021/04/18 05:37:15;;;;;;;0.00;0.00;;;16.90;54.90;;;;;;4218131;28;20257;-43
2021/04/18 05:39:36;;;;;;;0.25;0.25;;;16.90;55.20;;;;;;4225535;28;20051;-45
2021/04/18 05:41:58;;;;;;;0.00;0.00;;;16.80;55.40;;;;;;4225442;28;20104;-43
2021/04/18 05:44:19;;;;;;;0.00;0.00;;;16.70;55.70;;;;;;4225335;28;20048;-43
2021/04/18 05:46:41;;;;;;;0.00;0.00;;;16.80;55.60;;;;;;4215768;28;20143;-45
2021/04/18 05:49:02;;;;;;;0.00;0.00;;;17.00;54.90;;;;;;4209747;28;20121;-42
2021/04/18 05:51:23;;;;;;;0.00;0.00;;;17.20;54.40;;;;;;4208925;28;20056;-44
2021/04/18 05:53:47;;;;;;;0.00;0.00;;;17.40;54.40;;;;;;4206378;28;20056;-43
2021/04/18 05:56:08;;;;;;;0.00;0.00;;;17.30;54.60;;;;;;4205823;28;20052;-45
2021/04/18 05:58:30;;;;;;;0.00;0.00;;;17.30;54.70;;;;;;4223130;28;20047;-43
2021/04/18 06:00:51;;;;;;;0.00;0.00;;;17.20;55.00;;;;;;4225099;28;20056;-43
2021/04/18 06:03:12;;;;;;;0.10;0.10;;;17.20;55.10;;;;;;4224491;28;20055;-44
2021/04/18 06:05:34;;;;;;;0.00;0.00;;;17.20;55.20;;;;;;4219520;28;20053;-43
2021/04/18 06:07:55;;;;;;;0.00;0.00;;;17.20;55.30;;;;;;4224906;28;20050;-43
2021/04/18 06:10:16;;;;;;;0.00;0.00;;;17.10;55.20;;;;;;4225105;28;20468;-44
2021/04/18 06:12:37;;;;;;;;;;;17.10;55.40;;;;;;4220501;28;20056;-43
2021/04/18 06:14:59;;;;;;;0.00;0.00;;;17.00;55.70;;;;;;4224253;28;19928;-43
2021/04/18 06:17:20;;;;;;;0.10;0.10;;;17.00;55.90;;;;;;4214509;28;20059;-45
2021/04/18 06:19:42;;;;;;;0.00;0.00;;;16.90;56.10;;;;;;4224795;28;20043;-43
2021/04/18 06:22:03;;;;;;;0.00;0.00;;;16.80;56.40;;;;;;4211160;27;20052;-46
2021/04/18 06:24:24;;;;;;;0.00;0.00;;;16.70;56.70;;;;;;4226132;27;20058;-44
2021/04/18 06:26:45;;;;;;;0.20;0.20;;;16.50;57.60;;;;;;4241329;27;20409;-43
2021/04/18 06:29:06;;;;;;;;;;;16.50;57.20;;;;;;4220867;27;20537;-44
2021/04/18 06:31:27;;;;;;;0.00;0.00;;;16.40;57.50;;;;;;4208123;27;20339;-46
2021/04/18 06:33:48;;;;;;;;;;;16.30;57.90;;;;;;4208870;28;20048;-44
2021/04/18 06:36:10;;;;;;;0.27;0.27;;;16.20;58.00;;;;;;4212725;28;20351;-44
2021/04/18 06:38:31;;;;;;;1.10;1.00;;;16.20;58.20;;;;;;4224151;27;20051;-42
2021/04/18 06:40:53;;;;;;;0.00;0.00;;;16.10;58.40;;;;;;4236996;27;20520;-43
2021/04/18 06:43:15;;;;;;;0.00;0.00;;;16.10;58.50;;;;;;4235073;27;20045;-44
2021/04/18 06:45:36;;;;;;;0.00;0.00;;;16.00;58.60;;;;;;4241299;27;20055;-45
2021/04/18 06:47:59;;;;;;;4.25;0.47;;;15.90;58.80;;;;;;4241301;27;20167;-43
2021/04/18 06:50:21;;;;;;;0.82;0.82;;;15.90;59.30;;;;;;4207909;28;20483;-43
2021/04/18 06:52:43;;;;;;;0.00;0.00;;;15.80;59.40;;;;;;4193539;28;20514;-43
2021/04/18 06:55:06;;;;;;;0.30;0.30;;;15.70;59.60;;;;;;4224705;28;20584;-43
2021/04/18 06:57:27;;;;;;;0.73;0.73;;;15.60;59.80;;;;;;4224369;28;20063;-43
2021/04/18 06:59:48;;;;;;;0.00;0.00;;;15.60;60.00;;;;;;4204837;28;20044;-43
2021/04/18 07:02:24;;;;;;;0.00;0.00;;;15.50;60.10;;;;;;4207785;28;20051;-49
2021/04/18 07:04:57;;;;;;;0.13;0.13;;;15.50;60.40;;;;;;4212068;28;20054;-44
2021/04/18 07:07:27;;;;;;;0.00;0.00;;;15.40;60.70;;;;;;4206642;28;20488;-43
2021/04/18 07:09:49;;;;;;;0.08;0.08;;;15.40;60.80;;;;;;4208150;28;20056;-44
2021/04/18 07:12:10;;;;;;;0.43;0.20;;;15.30;61.00;;;;;;4215149;28;20043;-44
2021/04/18 07:14:32;;;;;;;0.10;0.10;;;15.30;61.10;;;;;;4215447;28;20494;-43
2021/04/18 07:16:54;;;;;;;0.22;0.22;;;15.30;61.30;;;;;;4216891;28;20074;-42
2021/04/18 07:19:20;;;;;;;0.63;0.63;;;15.30;61.40;;;;;;4209929;28;20045;-43
2021/04/18 07:21:45;;;;;;;0.40;0.40;;;15.20;61.60;;;;;;4199046;28;20067;-46
2021/04/18 07:24:06;;;;;;;0.00;0.00;;;15.20;61.70;;;;;;4190986;28;20071;-47
2021/04/18 07:26:28;;;;;;;;;;;15.20;61.80;;;;;;4203254;28;20100;-45
2021/04/18 07:28:51;;;;;;;1.58;0.88;;;15.20;62.00;;;;;;4196564;28;19994;-45
2021/04/18 07:31:12;;;;;;;2.20;0.55;;;15.20;62.10;;;;;;4192345;28;20052;-46
2021/04/18 07:33:33;;;;;;;0.03;0.03;;;15.20;62.10;;;;;;4189655;28;20060;-46
2021/04/18 07:35:54;;;;;;;;;;;15.20;62.30;;;;;;4207657;28;20074;-48
2021/04/18 07:38:21;;;;;;;1.90;1.30;;;15.30;62.50;;;;;;4207313;28;19927;-43
2021/04/18 07:40:42;;;;;;;0.57;0.57;;;15.30;62.70;;;;;;4206940;28;20460;-43
2021/04/18 07:43:08;;;;;;;0.00;0.00;;;15.30;62.50;;;;;;4207342;28;20047;-44
2021/04/18 07:45:29;;;;;;;0.00;0.00;;;15.20;63.40;;;;;;4215947;28;20479;-43
2021/04/18 07:47:50;;;;;;;0.52;0.52;;;15.30;62.60;;;;;;4190705;28;20072;-45
2021/04/18 07:50:14;;;;;;;0.10;0.10;;;15.20;62.60;;;;;;4194579;28;20063;-43
2021/04/18 07:52:36;;;;;;;1.55;1.45;;;15.20;62.60;;;;;;4206508;28;20047;-43
2021/04/18 07:54:58;;;;;;;0.00;0.00;;;15.20;62.60;;;;;;4218209;28;20135;-45
2021/04/18 07:57:19;;;;;;;0.10;0.10;;;15.20;62.70;;;;;;4212513;28;20097;-46
2021/04/18 07:59:42;;;;;;;0.43;0.43;;;15.20;62.60;;;;;;4212473;28;20083;-43
2021/04/18 08:02:03;;;;;;;9.20;1.75;;;15.20;62.60;;;;;;4199521;28;20486;-43
2021/04/18 08:04:24;;;;;;;;;;;15.20;62.60;;;;;;4208434;28;20044;-45
2021/04/18 08:06:45;;;;;;;0.10;0.10;;;15.30;62.80;;;;;;4216780;28;19924;-42
2021/04/18 08:09:16;;;;;;;0.10;0.10;;;15.20;62.70;;;;;;4202845;28;20080;-43
2021/04/18 08:11:37;;;;;;;1.77;0.65;;;15.20;62.70;;;;;;4206993;28;20044;-44
2021/04/18 08:13:58;;;;;;;0.10;0.10;;;15.30;62.70;;;;;;4199376;28;20056;-43
2021/04/18 08:16:29;;;;;;;0.93;0.93;;;15.30;62.80;;;;;;4207168;28;20048;-43
2021/04/18 08:18:50;;;;;;;0.77;0.77;;;15.30;62.80;;;;;;4210038;28;20464;-43
2021/04/18 08:21:29;;;;;;;0.00;0.00;;;15.30;62.70;;;;;;4225256;28;20063;-43
2021/04/18 08:23:51;;;;;;;0.00;0.00;;;15.30;62.80;;;;;;4223765;28;20052;-43
2021/04/18 08:26:15;;;;;;;0.00;0.00;;;15.30;62.80;;;;;;4211339;28;20533;-43
2021/04/18 08:29:11;;;;;;;0.00;0.00;;;15.30;62.80;;;;;;4221439;27;20056;-43
2021/04/18 08:31:51;;;;;;;0.00;0.00;;;15.30;62.60;;;;;;4193492;28;20072;-43
2021/04/18 08:34:20;;;;;;;0.80;0.45;;;15.40;62.60;;;;;;4192142;28;20044;-43
2021/04/18 08:36:47;;;;;;;0.20;0.20;;;15.40;62.30;;;;;;4213743;28;20051;-42
2021/04/18 08:39:20;;;;;;;0.10;0.10;;;15.40;62.10;;;;;;4210692;28;20078;-50
2021/04/18 08:41:43;;;;;;;0.00;0.00;;;15.40;62.30;;;;;;4191024;28;20110;-45
2021/04/18 08:44:15;;;;;;;0.30;0.30;;;15.40;62.30;;;;;;4207177;28;20498;-42
2021/04/18 08:46:37;;;;;;;0.00;0.00;;;15.40;62.00;;;;;;4197000;28;20044;-42
2021/04/18 08:48:58;;;;;;;0.32;0.32;;;15.50;61.90;;;;;;4224955;28;20397;-42
2021/04/18 08:51:29;;;;;;;;;;;15.50;61.90;;;;;;4227005;28;20056;-43
2021/04/18 08:53:55;;;;;;;0.50;0.50;;;15.50;61.80;;;;;;4219642;27;20015;-42
2021/04/18 08:56:16;;;;;;;0.10;0.10;;;15.50;61.60;;;;;;4193186;28;20102;-43
2021/04/18 08:58:38;;;;;;;0.10;0.10;;;15.50;61.40;;;;;;4199109;28;20131;-41
2021/04/18 09:01:08;;;;;;;1.08;0.52;;;15.50;61.30;;;;;;4209721;28;20068;-43
2021/04/18 09:03:30;;;;;;;0.00;0.00;;;15.50;61.10;;;;;;4207610;28;20058;-42
2021/04/18 09:06:02;;;;;;;0.17;0.17;;;15.50;61.00;;;;;;4214902;27;20495;-44
2021/04/18 09:08:23;;;;;;;0.00;0.00;;;15.50;61.00;;;;;;4218307;27;20078;-42
2021/04/18 09:11:02;;;;;;;5.60;1.55;;;15.50;60.90;;;;;;4242505;27;20043;-42
2021/04/18 09:13:23;;;;;;;0.00;0.00;;;15.50;60.80;;;;;;4239032;27;20047;-42
2021/04/18 09:15:45;;;;;;;0.00;0.00;;;15.60;60.90;;;;;;4209404;28;20055;-43
2021/04/18 09:18:09;;;;;;;0.20;0.20;;;15.60;60.70;;;;;;4209438;28;20048;-42
2021/04/18 09:20:31;;;;;;;0.00;0.00;;;15.60;60.60;;;;;;4192037;28;20146;-44
2021/04/18 09:23:04;;;;;;;1.65;0.68;;;15.60;60.50;;;;;;4209522;28;20421;-42
2021/04/18 09:25:25;;;;;;;0.20;0.17;;;15.60;60.60;;;;;;4205614;28;20044;-43
2021/04/18 09:27:48;;;;;;;0.00;0.00;;;15.60;60.60;;;;;;4208632;28;20063;-42
2021/04/18 09:30:12;;;;;;;0.00;0.00;;;15.60;60.70;;;;;;4208272;28;20044;-45
2021/04/18 09:32:35;;;;;;;0.00;0.00;;;15.70;60.70;;;;;;4193564;28;20621;-42
2021/04/18 09:34:57;;;;;;;0.00;0.00;;;15.70;60.50;;;;;;4218725;27;20393;-42
2021/04/18 09:37:22;;;;;;;0.15;0.15;;;15.70;60.30;;;;;;4212770;28;20047;-42
2021/04/18 09:39:43;;;;;;;0.00;0.00;;;15.70;60.30;;;;;;4225446;28;20058;-46
2021/04/18 09:42:07;;;;;;;0.65;0.43;;;15.70;60.30;;;;;;4225723;28;20043;-42
2021/04/18 09:44:32;;;;;;;0.35;0.35;;;15.70;60.30;;;;;;4210787;28;20063;-43
2021/04/18 09:46:54;;;;;;;0.10;0.10;;;15.70;60.10;;;;;;4208180;28;20510;-42
2021/04/18 09:49:16;;;;;;;0.10;0.10;;;15.80;60.10;;;;;;4223771;28;20445;-42
2021/04/18 09:51:57;;;;;;;0.00;0.00;;;15.70;59.90;;;;;;4225117;28;20050;-42
2021/04/18 09:54:27;;;;;;;1.27;1.17;;;15.80;59.70;;;;;;4206746;28;20396;-42
2021/04/18 09:57:26;;;;;;;0.10;0.10;;;15.80;59.60;;;;;;4225075;28;20512;-41
2021/04/18 10:00:04;;;;;;;0.10;0.10;;;15.90;59.60;;;;;;4225363;27;20048;-45
2021/04/18 10:02:25;;;;;;;5.15;0.68;;;15.90;59.40;;;;;;4224759;28;20075;-44
2021/04/18 10:04:46;;;;;;;0.20;0.20;;;16.00;59.30;;;;;;4220108;28;20219;-42
2021/04/18 10:07:08;;;;;;;0.17;0.17;;;16.00;59.10;;;;;;4196692;28;20048;-45
2021/04/18 10:09:55;;;;;;;0.68;0.20;;;16.00;59.00;;;;;;4205978;28;20043;-42
2021/04/18 10:12:16;;;;;;;1.25;0.52;;;16.00;58.90;;;;;;4224971;28;20051;-46
2021/04/18 10:14:37;;;;;;;;;;;16.10;59.00;;;;;;4212350;28;20070;-45
2021/04/18 10:16:59;;;;;;;0.28;0.28;;;16.10;59.00;;;;;;4225190;28;19920;-46
2021/04/18 10:19:24;;;;;;;0.00;0.00;;;16.10;58.90;;;;;;4210988;28;20051;-44
2021/04/18 10:22:04;;;;;;;0.00;0.00;;;16.10;58.80;;;;;;4225335;28;20386;-47
2021/04/18 10:24:36;;;;;;;0.63;0.63;;;16.20;58.70;;;;;;4195304;28;20048;-45
2021/04/18 10:26:58;;;;;;;0.30;0.30;;;16.20;58.70;;;;;;4239940;27;20151;-45
2021/04/18 10:29:19;;;;;;;1.05;1.00;;;16.20;58.70;;;;;;4238790;27;20130;-42
2021/04/18 10:31:40;;;;;;;0.00;0.00;;;16.30;58.70;;;;;;4241673;27;20058;-45
2021/04/18 10:34:01;;;;;;;;;;;16.20;58.60;;;;;;4242337;27;20039;-44
2021/04/18 10:36:22;;;;;;;0.00;0.00;;;16.30;58.60;;;;;;4241660;27;20331;-42
2021/04/18 10:38:44;;;;;;;0.63;0.63;;;16.30;58.50;;;;;;4238771;27;20817;-42
2021/04/18 10:41:07;;;;;;;0.10;0.10;;;16.30;58.50;;;;;;4241365;27;20039;-43
2021/04/18 10:43:28;;;;;;;0.00;0.00;;;16.30;58.40;;;;;;4217164;27;20067;-42
2021/04/18 10:45:50;;;;;;;1.55;0.63;;;16.30;58.40;;;;;;4240210;27;20123;-43
2021/04/18 10:48:11;;;;;;;;;;;16.30;58.40;;;;;;4240650;27;20495;-43
2021/04/18 10:50:32;;;;;;;0.00;0.00;;;16.40;58.40;;;;;;4202102;28;19927;-44
2021/04/18 10:52:54;;;;;;;0.28;0.28;;;16.40;58.30;;;;;;4191083;28;20076;-43
2021/04/18 10:55:15;;;;;;;0.00;0.00;;;16.40;58.40;;;;;;4191295;28;20044;-46
2021/04/18 10:57:36;;;;;;;0.28;0.28;;;16.40;58.30;;;;;;4191549;28;20114;-45
2021/04/18 10:59:58;;;;;;;0.00;0.00;;;16.50;58.20;;;;;;4158035;28;20407;-51
2021/04/18 11:02:19;;;;;;;0.22;0.22;;;16.50;58.10;;;;;;4162977;28;20823;-42
2021/04/18 11:04:42;;;;;;;0.00;0.00;;;16.50;58.10;;;;;;4190111;28;20055;-46
2021/04/18 11:07:04;;;;;;;0.00;0.00;;;16.50;58.10;;;;;;4191266;28;20045;-45
2021/04/18 11:09:25;;;;;;;0.00;0.00;;;16.50;58.00;;;;;;4191678;28;20076;-42
2021/04/18 11:11:46;;;;;;;0.10;0.10;;;16.60;58.00;;;;;;4191554;28;20060;-44
2021/04/18 11:14:08;;;;;;;0.98;0.95;;;16.60;57.90;;;;;;4178085;28;20389;-43
2021/04/18 11:16:29;;;;;;;0.98;0.98;;;16.60;57.90;;;;;;4174672;28;20549;-42
2021/04/18 11:18:51;;;;;;;0.00;0.00;;;16.60;57.90;;;;;;4176093;28;20518;-42
2021/04/18 11:21:13;;;;;;;0.35;0.35;;;16.60;57.90;;;;;;4186224;28;20704;-42
2021/04/18 11:23:34;;;;;;;0.00;0.00;;;16.60;57.90;;;;;;4207680;28;20063;-42
2021/04/18 11:25:56;;;;;;;0.20;0.20;;;16.60;57.80;;;;;;4207619;28;20047;-42
2021/04/18 11:28:17;;;;;;;0.20;0.20;;;16.60;57.80;;;;;;4200674;28;20113;-42
2021/04/18 11:30:38;;;;;;;0.00;0.00;;;16.60;57.70;;;;;;4175867;28;20488;-42
2021/04/18 11:33:00;;;;;;;0.15;0.15;;;16.60;58.40;;;;;;4180324;28;20048;-42
2021/04/18 11:35:22;;;;;;;0.00;0.00;;;16.60;57.70;;;;;;4191339;28;20402;-43
2021/04/18 11:37:43;;;;;;;0.10;0.10;;;16.60;57.60;;;;;;4190799;28;20106;-42
2021/04/18 11:40:05;;;;;;;0.10;0.10;;;16.60;58.30;;;;;;4182812;28;20049;-42
2021/04/18 11:42:26;;;;;;;0.00;0.00;;;16.60;57.80;;;;;;4173684;28;20132;-43
2021/04/18 11:44:47;;;;;;;0.82;0.73;;;16.50;57.80;;;;;;4182648;28;20518;-42
2021/04/18 11:47:08;;;;;;;0.88;0.50;;;16.50;57.70;;;;;;4190648;28;20048;-42
2021/04/18 11:49:30;;;;;;;0.10;0.10;;;16.50;57.60;;;;;;4176369;28;20067;-42
2021/04/18 11:51:51;;;;;;;0.20;0.20;;;16.50;57.60;;;;;;4200770;28;20064;-43
2021/04/18 11:54:12;;;;;;;0.08;0.08;;;16.50;57.50;;;;;;4209524;28;20052;-46
2021/04/18 11:56:33;;;;;;;0.10;0.10;;;16.50;57.50;;;;;;4210612;28;20418;-53
2021/04/18 11:58:55;;;;;;;0.13;0.13;;;16.50;57.50;;;;;;4211042;28;20082;-44
2021/04/18 12:01:15;;;;;;;0.05;0.05;;;16.50;57.10;;;;;;4210452;28;20047;-44
2021/04/18 12:03:36;;;;;;;0.10;0.10;;;16.60;57.00;;;;;;4227301;28;20425;-42
2021/04/18 12:05:59;;;;;;;0.95;0.95;;;16.60;56.90;;;;;;4216117;28;20044;-45
2021/04/18 12:08:23;;;;;;;0.00;0.00;;;16.60;56.90;;;;;;4223286;28;20039;-43
2021/04/18 12:10:44;;;;;;;0.88;0.88;;;16.60;56.90;;;;;;4227316;28;20494;-43
2021/04/18 12:13:05;;;;;;;0.98;0.88;;;16.60;56.80;;;;;;4226605;28;20051;-47
2021/04/18 12:15:27;;;;;;;0.00;0.00;;;16.60;56.80;;;;;;4210755;28;20433;-42
2021/04/18 12:17:48;;;;;;;0.00;0.00;;;16.60;56.80;;;;;;4210596;28;20105;-43
2021/04/18 12:20:11;;;;;;;0.00;0.00;;;16.60;56.70;;;;;;4227348;28;20071;-42
2021/04/18 12:22:33;;;;;;;0.13;0.13;;;16.70;56.80;;;;;;4212383;28;20135;-42
2021/04/18 12:24:54;;;;;;;0.38;0.38;;;16.70;56.70;;;;;;4221775;28;20048;-42
2021/04/18 12:27:15;;;;;;;0.10;0.10;;;16.70;56.50;;;;;;4210511;28;20051;-43
2021/04/18 12:29:36;;;;;;;0.20;0.20;;;16.70;56.20;;;;;;4210301;28;20521;-43
2021/04/18 12:31:57;;;;;;;0.00;0.00;;;16.70;56.10;;;;;;4210448;28;20387;-42